Terminal Aerodrome Forecast
Issued by NWS

Home | Current Version | Previous Version | Text Only | Print | Product List | Glossary On
Versions: 1 2 3 4 5 6 7 8 9 10 11 12 13 14 15 16
000
FTAK31 PANC 240532
TAFAEN
TAF
PAEN 240532Z 2406/2506 16010KT P6SM BKN035
     FM241200 VRB06KT P6SM VCSH SCT010 OVC030
     FM241500 05004KT 5SM -SN SCT010 BKN020
     FM242000 03011KT 3SM -SN BKN010=

USA.gov is the U.S. government's official web portal to all federal, state and local government web resources and services.